Portland, Oregon
Traffic Map
Current Weather Conditions
Portland, Oregon
Scattered Clouds
Scattered Clouds
11°
Feels Like: 11°
Wind Chill: 11° Ceiling: Unl
Heat Index: 11° Visibility: 10mi
Dew Point: Wind: 3mph
Humidity: 74% Direction: 80° (E)
Pressure: 30.34in Gusts: 0mph
Raw Report DataKPDX 290553Z 08003KT 10SM FEW160 SCT180 11/07 A3034 RMK AO2 SLP273 T01110067 10161 20100 55002
Traffic Incident Summary
Active as of:
Severity:
Category:
InformationThere was an issue retrieving the traffic information for this location. Please try a different location or try again shortly.
Advertisements
Track Severe Weather on mobile